Time;durP1;ratioP1;P1;durP2;ratioP2;P2;SDS_P1;SDS_P2;PMS_P1;PMS_P2;Temp;Humidity;BMP_temperature;BMP_pressure;BME280_temperature;BME280_humidity;BME280_pressure;Samples;Min_cycle;Max_cycle;Signal;HPM_P1;HPM_P2
2023/10/28 00:01:39;;;;;;;23.52;11.38;;;12.40;99.90;;;;;;5036232;28;20025;-69
2023/10/28 00:04:06;;;;;;;20.58;10.93;;;12.40;99.90;;;;;;5035661;28;20086;-69
2023/10/28 00:06:31;;;;;;;24.52;11.90;;;12.50;99.90;;;;;;5035283;28;20055;-70
2023/10/28 00:08:57;;;;;;;27.83;12.18;;;12.40;99.90;;;;;;5034965;28;20053;-70
2023/10/28 00:11:29;;;;;;;23.40;12.35;;;12.30;99.90;;;;;;5030984;28;20431;-69
2023/10/28 00:13:55;;;;;;;24.88;11.80;;;12.30;99.90;;;;;;5035801;28;20476;-70
2023/10/28 00:16:20;;;;;;;20.60;10.43;;;12.30;99.90;;;;;;5033446;28;20032;-69
2023/10/28 00:18:46;;;;;;;19.33;10.88;;;12.50;99.90;;;;;;5033050;28;20030;-69
2023/10/28 00:21:17;;;;;;;25.98;12.63;;;12.40;99.90;;;;;;5034124;28;20038;-70
2023/10/28 00:23:46;;;;;;;24.75;12.00;;;12.30;99.90;;;;;;5036827;28;20017;-69
2023/10/28 00:26:14;;;;;;;24.52;12.40;;;12.30;99.90;;;;;;5034244;28;20032;-69
2023/10/28 00:28:39;;;;;;;22.05;11.55;;;12.40;99.90;;;;;;5035769;28;20025;-69
2023/10/28 00:31:05;;;;;;;22.80;11.20;;;12.50;99.90;;;;;;5033508;28;20037;-69
2023/10/28 00:33:30;;;;;;;22.50;11.50;;;12.40;99.90;;;;;;5036704;28;20036;-70
2023/10/28 00:35:58;;;;;;;25.08;12.38;;;12.40;99.90;;;;;;5036601;28;20071;-69
2023/10/28 00:38:26;;;;;;;23.13;12.27;;;12.40;99.90;;;;;;5033653;28;20384;-70
2023/10/28 00:40:54;;;;;;;21.35;11.40;;;12.30;99.90;;;;;;5030015;28;20034;-69
2023/10/28 00:43:25;;;;;;;;;;;12.40;99.90;;;;;;5034720;28;20032;-69
2023/10/28 00:45:51;;;;;;;23.17;11.25;;;12.40;99.90;;;;;;5029144;28;19924;-70
2023/10/28 00:48:20;;;;;;;29.02;12.32;;;12.40;99.90;;;;;;5033206;28;20029;-69
2023/10/28 00:50:46;;;;;;;23.60;11.60;;;12.50;99.90;;;;;;5038051;28;20464;-69
2023/10/28 00:53:11;;;;;;;24.85;11.30;;;12.50;99.90;;;;;;5031164;28;20037;-69
2023/10/28 00:55:37;;;;;;;25.15;12.55;;;12.50;99.90;;;;;;5033433;28;20029;-70
2023/10/28 00:58:03;;;;;;;21.05;10.95;;;12.40;99.90;;;;;;5027804;28;20376;-69
2023/10/28 01:00:29;;;;;;;24.58;11.80;;;12.40;99.90;;;;;;5031105;28;20033;-71
2023/10/28 01:02:55;;;;;;;23.33;12.48;;;12.30;99.90;;;;;;5032779;28;20533;-69
2023/10/28 01:05:22;;;;;;;21.55;11.63;;;12.30;99.90;;;;;;5029312;28;20026;-69
2023/10/28 01:07:49;;;;;;;22.20;12.27;;;12.30;99.90;;;;;;5028899;28;20018;-69
2023/10/28 01:10:28;;;;;;;25.58;11.60;;;12.30;99.90;;;;;;5033844;28;20036;-70
2023/10/28 01:12:54;;;;;;;21.33;11.35;;;12.40;99.90;;;;;;5034033;28;20100;-69
2023/10/28 01:15:20;;;;;;;30.92;12.00;;;12.40;99.90;;;;;;5031809;28;20056;-69
2023/10/28 01:17:46;;;;;;;21.02;11.63;;;12.40;99.90;;;;;;5031556;28;20109;-69
2023/10/28 01:20:13;;;;;;;20.67;11.20;;;12.40;99.90;;;;;;5030429;28;20029;-70
2023/10/28 01:22:38;;;;;;;22.00;11.73;;;12.40;99.90;;;;;;5030941;28;20029;-69
2023/10/28 01:25:04;;;;;;;19.27;10.55;;;12.50;99.90;;;;;;5029710;28;20093;-69
2023/10/28 01:27:30;;;;;;;20.02;10.75;;;12.50;99.90;;;;;;5026725;28;20037;-69
2023/10/28 01:29:55;;;;;;;21.00;10.73;;;12.40;99.90;;;;;;5032718;28;20025;-69
2023/10/28 01:32:21;;;;;;;21.63;11.65;;;12.60;99.90;;;;;;5026476;28;20100;-70
2023/10/28 01:34:56;;;;;;;19.10;10.57;;;12.50;99.90;;;;;;5031688;28;20067;-69
2023/10/28 01:37:21;;;;;;;22.67;11.70;;;12.50;99.90;;;;;;5027491;28;20022;-69
2023/10/28 01:39:52;;;;;;;22.30;10.93;;;12.50;99.90;;;;;;5034004;28;20037;-69
2023/10/28 01:42:19;;;;;;;23.23;10.75;;;12.40;99.90;;;;;;5029296;28;20033;-70
2023/10/28 01:44:45;;;;;;;16.88;9.65;;;12.40;99.90;;;;;;5030904;28;20053;-69
2023/10/28 01:47:13;;;;;;;24.38;10.52;;;12.30;99.90;;;;;;5028676;28;20034;-69
2023/10/28 01:49:42;;;;;;;18.43;10.50;;;12.30;99.90;;;;;;5031207;28;20513;-69
2023/10/28 01:52:09;;;;;;;18.30;10.65;;;12.20;99.90;;;;;;5026351;28;20065;-70
2023/10/28 01:54:35;;;;;;;21.33;10.50;;;12.20;99.90;;;;;;5034137;28;20399;-70
2023/10/28 01:57:06;;;;;;;20.15;10.82;;;12.20;99.90;;;;;;5031774;28;20028;-70
2023/10/28 01:59:38;;;;;;;22.40;11.60;;;12.10;99.90;;;;;;5031497;28;20057;-70
2023/10/28 02:02:04;;;;;;;21.30;10.55;;;12.20;99.90;;;;;;5041756;28;20032;-70
2023/10/28 02:04:33;;;;;;;20.73;11.07;;;12.20;99.90;;;;;;5031687;28;20537;-70
2023/10/28 02:07:04;;;;;;;27.38;11.05;;;12.20;99.90;;;;;;5031842;28;20029;-70
2023/10/28 02:09:33;;;;;;;19.02;10.18;;;12.20;99.90;;;;;;5028791;28;20017;-70
2023/10/28 02:12:01;;;;;;;23.77;11.23;;;12.20;99.90;;;;;;5024344;28;20044;-70
2023/10/28 02:14:30;;;;;;;22.75;11.55;;;12.30;99.90;;;;;;5030356;28;20856;-69
2023/10/28 02:16:56;;;;;;;18.83;9.80;;;12.30;99.90;;;;;;5028495;28;20033;-70
2023/10/28 02:19:22;;;;;;;18.35;10.32;;;12.30;99.90;;;;;;5029788;28;20029;-69
2023/10/28 02:21:50;;;;;;;21.75;11.82;;;12.30;99.90;;;;;;5029076;28;20395;-70
2023/10/28 02:24:19;;;;;;;20.48;11.57;;;12.30;99.90;;;;;;5030155;28;20037;-70
2023/10/28 02:26:48;;;;;;;21.98;11.82;;;12.20;99.90;;;;;;5028954;28;20021;-70
2023/10/28 02:29:16;;;;;;;23.80;11.43;;;12.20;99.90;;;;;;5029349;28;20033;-70
2023/10/28 02:31:41;;;;;;;21.92;12.27;;;12.20;99.90;;;;;;5029491;28;20458;-70
2023/10/28 02:34:07;;;;;;;21.77;10.65;;;12.20;99.90;;;;;;5031378;28;20116;-70
2023/10/28 02:36:35;;;;;;;20.40;10.52;;;12.20;99.90;;;;;;5028109;28;20025;-72
2023/10/28 02:39:01;;;;;;;20.83;11.60;;;12.10;99.90;;;;;;5032512;28;20486;-70
2023/10/28 02:41:26;;;;;;;23.75;12.10;;;12.10;99.90;;;;;;5025998;28;20026;-70
2023/10/28 02:43:52;;;;;;;23.42;11.77;;;12.10;99.90;;;;;;5030178;28;20480;-70
2023/10/28 02:46:22;;;;;;;20.70;11.57;;;12.10;99.90;;;;;;5027999;28;20033;-70
2023/10/28 02:48:48;;;;;;;20.50;10.93;;;12.10;99.90;;;;;;5030870;28;20395;-70
2023/10/28 02:51:13;;;;;;;21.55;11.15;;;12.20;99.90;;;;;;5025029;28;20013;-70
2023/10/28 02:53:40;;;;;;;20.80;10.50;;;12.30;99.90;;;;;;5031349;28;20037;-70
2023/10/28 02:56:05;;;;;;;20.33;10.57;;;12.30;99.90;;;;;;5025456;28;20029;-70
2023/10/28 02:58:31;;;;;;;21.55;11.02;;;12.20;99.90;;;;;;5031360;28;20506;-69
2023/10/28 03:01:06;;;;;;;26.00;10.40;;;12.20;99.90;;;;;;5029451;28;20029;-70
2023/10/28 03:03:32;;;;;;;19.40;10.02;;;12.20;99.90;;;;;;5028647;28;20029;-70
2023/10/28 03:05:59;;;;;;;24.80;11.43;;;12.10;99.90;;;;;;5027185;28;20033;-70
2023/10/28 03:08:25;;;;;;;18.95;11.20;;;12.10;99.90;;;;;;5023534;28;20051;-69
2023/10/28 03:10:53;;;;;;;21.30;11.13;;;12.10;99.90;;;;;;5029558;28;20379;-70
2023/10/28 03:13:19;;;;;;;20.98;10.98;;;12.10;99.90;;;;;;5030530;28;20388;-70
2023/10/28 03:15:46;;;;;;;22.73;11.32;;;12.10;99.90;;;;;;5029011;28;20036;-70
2023/10/28 03:18:16;;;;;;;21.48;10.98;;;12.10;99.90;;;;;;5029726;28;20026;-70
2023/10/28 03:20:42;;;;;;;18.83;10.13;;;12.10;99.90;;;;;;5029854;28;20115;-70
2023/10/28 03:23:10;;;;;;;20.27;10.52;;;12.10;99.90;;;;;;5030732;28;20080;-70
2023/10/28 03:25:37;;;;;;;26.02;10.88;;;12.10;99.90;;;;;;5030932;28;20033;-69
2023/10/28 03:28:04;;;;;;;20.27;10.80;;;12.10;99.90;;;;;;5026649;28;20028;-70
2023/10/28 03:30:33;;;;;;;19.10;10.23;;;12.10;99.90;;;;;;5024567;28;20104;-70
2023/10/28 03:32:59;;;;;;;19.80;10.98;;;12.10;99.90;;;;;;5029027;28;20098;-70
2023/10/28 03:35:25;;;;;;;19.75;10.60;;;12.10;99.90;;;;;;5027344;28;20033;-69
2023/10/28 03:37:51;;;;;;;20.10;10.68;;;12.00;99.90;;;;;;5025347;28;20476;-70
2023/10/28 03:40:16;;;;;;;24.08;11.35;;;12.00;99.90;;;;;;5028199;28;20067;-69
2023/10/28 03:42:42;;;;;;;20.40;10.65;;;12.00;99.90;;;;;;5026809;28;20038;-69
2023/10/28 03:45:08;;;;;;;22.23;11.55;;;12.00;99.90;;;;;;5025742;28;20025;-70
2023/10/28 03:47:34;;;;;;;22.15;10.68;;;11.90;99.90;;;;;;5027318;28;20036;-69
2023/10/28 03:50:02;;;;;;;17.98;10.15;;;12.00;99.90;;;;;;5026289;28;20387;-70
2023/10/28 03:52:28;;;;;;;19.00;9.90;;;12.00;99.90;;;;;;5023458;28;20029;-71
2023/10/28 03:54:55;;;;;;;18.05;10.63;;;12.00;99.90;;;;;;5030940;28;20030;-71
2023/10/28 03:57:26;;;;;;;19.80;9.50;;;12.00;99.90;;;;;;5028559;28;20040;-70
2023/10/28 03:59:51;;;;;;;19.42;10.40;;;12.10;99.90;;;;;;5027105;28;20037;-71
2023/10/28 04:02:20;;;;;;;22.00;10.45;;;12.10;99.90;;;;;;5027563;28;20500;-70
2023/10/28 04:04:45;;;;;;;19.88;10.40;;;12.10;99.90;;;;;;5023973;28;20021;-71
2023/10/28 04:07:13;;;;;;;18.88;10.55;;;12.10;99.90;;;;;;5026368;28;20099;-71
2023/10/28 04:09:41;;;;;;;18.45;10.30;;;12.00;99.90;;;;;;5030235;28;20021;-71
2023/10/28 04:12:09;;;;;;;22.23;10.60;;;12.00;99.90;;;;;;5028018;28;20033;-70
2023/10/28 04:14:35;;;;;;;19.88;10.45;;;12.00;99.90;;;;;;5031573;28;20514;-70
2023/10/28 04:17:03;;;;;;;21.25;10.40;;;12.00;99.90;;;;;;5030119;28;20033;-70
2023/10/28 04:19:31;;;;;;;17.17;9.38;;;12.10;99.90;;;;;;5031987;28;20041;-70
2023/10/28 04:22:02;;;;;;;22.20;10.15;;;12.10;99.90;;;;;;5030407;28;20060;-70
2023/10/28 04:24:30;;;;;;;20.15;10.55;;;12.00;99.90;;;;;;5034007;28;20025;-70
2023/10/28 04:26:55;;;;;;;17.70;9.65;;;12.00;99.90;;;;;;5032655;28;20037;-71
2023/10/28 04:29:23;;;;;;;18.65;10.50;;;11.90;99.90;;;;;;5031568;28;20042;-71
2023/10/28 04:31:49;;;;;;;21.70;10.77;;;11.90;99.90;;;;;;5032495;28;20033;-70
2023/10/28 04:34:14;;;;;;;18.98;10.07;;;12.00;99.90;;;;;;5031372;28;20049;-70
2023/10/28 04:36:43;;;;;;;20.83;10.40;;;12.00;99.90;;;;;;5031151;28;20091;-70
2023/10/28 04:39:11;;;;;;;19.20;10.63;;;12.00;99.90;;;;;;5031687;28;20548;-70
2023/10/28 04:41:36;;;;;;;19.45;10.15;;;12.00;99.90;;;;;;5033549;28;20033;-70
2023/10/28 04:44:02;;;;;;;17.85;9.77;;;12.00;99.90;;;;;;5032158;28;20174;-70
2023/10/28 04:46:30;;;;;;;21.80;11.52;;;12.00;99.90;;;;;;5029689;28;20033;-70
2023/10/28 04:48:58;;;;;;;18.50;9.65;;;12.10;99.90;;;;;;5036949;28;20519;-71
2023/10/28 04:51:26;;;;;;;19.08;9.57;;;12.10;99.90;;;;;;5030181;28;20063;-71
2023/10/28 04:53:51;;;;;;;18.95;10.18;;;12.10;99.90;;;;;;5032904;28;20037;-71
2023/10/28 04:56:18;;;;;;;18.58;9.65;;;12.10;99.90;;;;;;5034170;28;20094;-71
2023/10/28 04:58:46;;;;;;;15.68;9.43;;;12.10;99.90;;;;;;5030563;28;20053;-71
2023/10/28 05:01:13;;;;;;;17.70;9.73;;;12.10;99.90;;;;;;5030520;28;20545;-70
2023/10/28 05:03:41;;;;;;;18.27;9.88;;;12.10;99.90;;;;;;5031097;28;20037;-70
2023/10/28 05:06:09;;;;;;;18.45;9.57;;;12.10;99.90;;;;;;5032050;28;20033;-70
2023/10/28 05:08:36;;;;;;;17.95;9.05;;;12.10;99.90;;;;;;5030908;28;20655;-70
2023/10/28 05:11:02;;;;;;;18.15;9.85;;;12.10;99.90;;;;;;5028199;28;20403;-70
2023/10/28 05:13:27;;;;;;;20.00;9.65;;;12.00;99.90;;;;;;5030276;28;20041;-71
2023/10/28 05:15:53;;;;;;;17.33;9.80;;;12.00;99.90;;;;;;5029407;28;20164;-70
2023/10/28 05:18:23;;;;;;;18.92;8.32;;;12.00;99.90;;;;;;5032624;28;20025;-70
2023/10/28 05:20:53;;;;;;;19.25;9.45;;;12.10;99.90;;;;;;5030213;28;20034;-71
2023/10/28 05:23:22;;;;;;;16.05;8.25;;;12.00;99.90;;;;;;5031124;28;20108;-70
2023/10/28 05:25:50;;;;;;;21.52;8.70;;;12.00;99.90;;;;;;5027490;28;20049;-70
2023/10/28 05:28:15;;;;;;;15.50;8.88;;;12.00;99.90;;;;;;5028784;28;20088;-70
2023/10/28 05:30:41;;;;;;;17.98;7.93;;;12.00;99.90;;;;;;5027966;28;19948;-70
2023/10/28 05:33:11;;;;;;;15.68;8.15;;;12.00;99.90;;;;;;5031187;28;20547;-71
2023/10/28 05:35:39;;;;;;;14.63;7.70;;;12.00;99.90;;;;;;5026053;28;20025;-71
2023/10/28 05:38:05;;;;;;;;;;;12.10;99.90;;;;;;5028597;28;20130;-71
2023/10/28 05:40:32;;;;;;;16.65;7.10;;;12.00;99.90;;;;;;5029404;28;20308;-71
2023/10/28 05:43:00;;;;;;;16.60;7.65;;;12.00;99.90;;;;;;5032094;28;20116;-70
2023/10/28 05:45:28;;;;;;;16.08;7.03;;;12.00;99.90;;;;;;5026604;28;21384;-71
2023/10/28 05:47:55;;;;;;;21.30;7.35;;;12.00;99.90;;;;;;5027304;28;20504;-70
2023/10/28 05:50:20;;;;;;;16.83;6.88;;;12.00;99.90;;;;;;5027694;28;20067;-70
2023/10/28 05:52:47;;;;;;;12.55;6.15;;;12.00;99.90;;;;;;5029008;28;20053;-70
2023/10/28 05:55:12;;;;;;;10.55;6.25;;;11.90;99.90;;;;;;5029458;28;20033;-70
2023/10/28 05:57:41;;;;;;;14.18;6.10;;;11.90;99.90;;;;;;5030692;28;20521;-70
2023/10/28 06:00:10;;;;;;;18.23;6.00;;;11.90;99.90;;;;;;5028360;28;20068;-70
2023/10/28 06:02:42;;;;;;;15.10;5.65;;;11.90;99.90;;;;;;5029386;28;20037;-70
2023/10/28 06:05:10;;;;;;;15.45;5.57;;;11.90;99.90;;;;;;5026669;28;20034;-70
2023/10/28 06:07:36;;;;;;;9.52;4.80;;;11.90;99.90;;;;;;5029059;28;20021;-70
2023/10/28 06:10:07;;;;;;;11.27;5.75;;;11.90;99.90;;;;;;5027601;28;20096;-70
2023/10/28 06:12:37;;;;;;;14.75;5.38;;;11.90;99.90;;;;;;5029961;28;20056;-70
2023/10/28 06:15:03;;;;;;;15.02;4.82;;;11.90;99.90;;;;;;5028027;28;20037;-70
2023/10/28 06:17:31;;;;;;;13.57;4.65;;;11.90;99.90;;;;;;5027118;28;20499;-70
2023/10/28 06:19:57;;;;;;;12.15;4.28;;;11.90;99.90;;;;;;5028793;28;20037;-70
2023/10/28 06:22:25;;;;;;;12.60;4.50;;;11.90;99.90;;;;;;5029235;28;20037;-70
2023/10/28 06:24:50;;;;;;;12.82;4.75;;;11.90;99.90;;;;;;5029422;28;20507;-70
2023/10/28 06:27:18;;;;;;;7.18;3.53;;;11.90;99.90;;;;;;5029637;28;20037;-70
2023/10/28 06:29:44;;;;;;;13.38;3.90;;;11.90;99.90;;;;;;5027646;28;20040;-70
2023/10/28 06:32:10;;;;;;;14.52;4.22;;;11.90;99.90;;;;;;5025302;28;20025;-70
2023/10/28 06:34:35;;;;;;;11.35;3.92;;;12.00;99.90;;;;;;5028010;28;20045;-70
2023/10/28 06:37:01;;;;;;;17.17;4.72;;;12.00;99.90;;;;;;5027452;28;20048;-70
2023/10/28 06:39:34;;;;;;;10.38;3.78;;;12.00;99.90;;;;;;5029701;28;20048;-70
2023/10/28 06:42:02;;;;;;;9.45;3.85;;;12.00;99.90;;;;;;5026265;28;20113;-70
2023/10/28 06:44:32;;;;;;;11.43;3.92;;;11.90;99.90;;;;;;5031758;28;20041;-70
2023/10/28 06:47:00;;;;;;;10.20;3.92;;;12.00;99.90;;;;;;5025605;28;20029;-70
2023/10/28 06:49:26;;;;;;;;;;;12.00;99.90;;;;;;5030417;28;20037;-70
2023/10/28 06:51:54;;;;;;;9.75;3.70;;;12.00;99.90;;;;;;5027042;28;20425;-70
2023/10/28 06:54:20;;;;;;;;;;;12.10;99.90;;;;;;5026997;28;20037;-70
2023/10/28 06:56:48;;;;;;;8.23;3.22;;;11.90;99.90;;;;;;5027144;28;19916;-69
2023/10/28 06:59:14;;;;;;;10.73;3.90;;;11.90;99.90;;;;;;5029837;28;20044;-70
2023/10/28 07:01:44;;;;;;;9.10;3.08;;;12.00;99.90;;;;;;5025938;28;20384;-70
2023/10/28 07:04:12;;;;;;;9.65;3.55;;;12.00;99.90;;;;;;5027515;28;20083;-69
2023/10/28 07:06:39;;;;;;;;;;;12.10;99.90;;;;;;5030715;28;20105;-69
2023/10/28 07:09:07;;;;;;;16.50;3.53;;;12.00;99.90;;;;;;5027072;28;19944;-69
2023/10/28 07:11:32;;;;;;;8.05;3.42;;;11.90;99.90;;;;;;5025176;28;20025;-70
2023/10/28 07:14:00;;;;;;;10.90;3.42;;;11.90;99.90;;;;;;5027661;28;20564;-70
2023/10/28 07:16:27;;;;;;;8.77;3.10;;;11.90;99.90;;;;;;5027964;28;20033;-70
2023/10/28 07:18:53;;;;;;;8.90;3.30;;;11.90;99.90;;;;;;5025816;28;20499;-70
2023/10/28 07:21:18;;;;;;;10.32;2.97;;;11.90;99.90;;;;;;5028292;28;20045;-70
2023/10/28 07:23:44;;;;;;;9.60;3.00;;;11.90;99.90;;;;;;5026302;28;20076;-70
2023/10/28 07:26:14;;;;;;;5.78;2.80;;;12.00;99.90;;;;;;5027405;28;20025;-70
2023/10/28 07:28:40;;;;;;;9.55;3.05;;;12.00;99.90;;;;;;5028440;28;20707;-70
2023/10/28 07:31:08;;;;;;;9.20;3.13;;;12.00;99.90;;;;;;5029414;28;20057;-70
2023/10/28 07:33:34;;;;;;;4.72;2.70;;;12.00;99.90;;;;;;5028256;28;20037;-69
2023/10/28 07:36:02;;;;;;;7.72;3.17;;;11.90;99.90;;;;;;5031142;28;20534;-69
2023/10/28 07:38:31;;;;;;;12.77;3.00;;;11.90;99.90;;;;;;5028683;28;20045;-69
2023/10/28 07:40:57;;;;;;;4.55;2.60;;;12.00;99.90;;;;;;5027372;28;20040;-69
2023/10/28 07:43:26;;;;;;;9.10;2.88;;;12.00;99.90;;;;;;5027323;28;20025;-69
2023/10/28 07:45:54;;;;;;;11.75;2.55;;;11.90;99.90;;;;;;5027007;28;20051;-70
2023/10/28 07:48:20;;;;;;;8.20;2.60;;;12.00;99.90;;;;;;5028409;28;20025;-69
2023/10/28 07:50:48;;;;;;;7.40;2.67;;;12.00;99.90;;;;;;5032877;28;20022;-70
2023/10/28 07:53:14;;;;;;;4.38;2.42;;;11.90;99.90;;;;;;5031996;28;20527;-69
2023/10/28 07:55:39;;;;;;;6.07;2.35;;;12.00;99.90;;;;;;5035263;28;20037;-69
2023/10/28 07:58:05;;;;;;;11.70;2.60;;;12.00;99.90;;;;;;5032767;28;20021;-70
2023/10/28 08:00:32;;;;;;;4.18;2.15;;;12.00;99.90;;;;;;5029429;28;20406;-70
2023/10/28 08:03:03;;;;;;;8.75;2.15;;;12.00;99.90;;;;;;5032835;28;20029;-70
2023/10/28 08:05:33;;;;;;;7.13;2.30;;;12.10;99.90;;;;;;5033050;28;20029;-69
2023/10/28 08:08:01;;;;;;;6.00;2.28;;;12.10;99.90;;;;;;5031814;28;20488;-70
2023/10/28 08:10:26;;;;;;;4.38;2.25;;;12.10;99.90;;;;;;5031242;28;20037;-70
2023/10/28 08:12:56;;;;;;;3.58;2.13;;;12.00;99.90;;;;;;5028261;28;20099;-70
2023/10/28 08:15:23;;;;;;;6.55;3.15;;;12.00;99.90;;;;;;5027752;28;20545;-69
2023/10/28 08:17:50;;;;;;;4.93;2.20;;;12.00;99.90;;;;;;5034378;28;20029;-69
2023/10/28 08:20:17;;;;;;;9.05;2.97;;;12.00;99.90;;;;;;5030981;28;20091;-69
2023/10/28 08:22:47;;;;;;;5.00;2.38;;;12.10;99.90;;;;;;5031955;28;20120;-69
2023/10/28 08:25:17;;;;;;;9.05;2.40;;;12.10;99.90;;;;;;5031413;28;20407;-69
2023/10/28 08:27:47;;;;;;;4.28;2.25;;;12.10;99.90;;;;;;5029827;28;20035;-69
2023/10/28 08:30:20;;;;;;;5.18;2.30;;;12.10;99.90;;;;;;5029234;28;20484;-69
2023/10/28 08:32:48;;;;;;;6.18;2.40;;;12.20;99.90;;;;;;5030162;28;20064;-70
2023/10/28 08:35:13;;;;;;;9.55;2.35;;;12.20;99.90;;;;;;5031394;28;20587;-69
2023/10/28 08:37:39;;;;;;;11.05;2.85;;;12.20;99.90;;;;;;5029947;28;20029;-70
2023/10/28 08:40:10;;;;;;;8.00;3.03;;;12.20;99.90;;;;;;5029989;28;20025;-70
2023/10/28 08:42:35;;;;;;;8.77;2.65;;;12.20;99.90;;;;;;5029274;28;20499;-69
2023/10/28 08:45:05;;;;;;;5.50;2.47;;;12.20;99.90;;;;;;5030451;28;20037;-70
2023/10/28 08:47:32;;;;;;;5.63;2.92;;;12.20;99.90;;;;;;5029110;28;20033;-69
2023/10/28 08:50:00;;;;;;;6.95;2.42;;;12.40;99.90;;;;;;5031947;28;20029;-69
2023/10/28 08:52:29;;;;;;;6.00;2.58;;;12.20;99.90;;;;;;5030723;28;20045;-69
2023/10/28 08:54:59;;;;;;;4.95;2.50;;;12.20;99.90;;;;;;5031382;28;20079;-69
2023/10/28 08:57:27;;;;;;;3.78;2.67;;;12.20;99.90;;;;;;5027566;28;20026;-69
2023/10/28 08:59:57;;;;;;;11.73;2.63;;;12.20;99.90;;;;;;5028497;28;20021;-69
2023/10/28 09:02:25;;;;;;;9.77;2.60;;;12.20;99.90;;;;;;5030471;28;20033;-69
2023/10/28 09:04:52;;;;;;;4.35;2.70;;;12.20;99.90;;;;;;5029111;28;20079;-69
2023/10/28 09:07:20;;;;;;;10.75;3.08;;;12.30;99.90;;;;;;5031021;28;20034;-69
2023/10/28 09:09:55;;;;;;;3.55;2.58;;;12.30;99.90;;;;;;5028685;28;20036;-69
2023/10/28 09:12:23;;;;;;;4.07;2.20;;;12.30;99.90;;;;;;5027298;28;20030;-70
2023/10/28 09:14:50;;;;;;;5.60;2.20;;;12.30;99.90;;;;;;5035530;28;20056;-70
2023/10/28 09:17:20;;;;;;;7.28;2.03;;;12.30;99.90;;;;;;5035755;28;20100;-70
2023/10/28 09:19:46;;;;;;;6.72;2.67;;;12.40;99.90;;;;;;5032404;28;20018;-70
2023/10/28 09:22:16;;;;;;;3.30;1.83;;;12.40;99.90;;;;;;5039071;28;20466;-69
2023/10/28 09:24:49;;;;;;;7.00;2.42;;;12.40;99.90;;;;;;5032603;28;20116;-69
2023/10/28 09:27:21;;;;;;;6.82;2.17;;;12.50;99.90;;;;;;5036600;28;20068;-69
2023/10/28 09:29:46;;;;;;;5.28;2.15;;;12.40;99.90;;;;;;5031345;28;21226;-70
2023/10/28 09:32:13;;;;;;;9.05;2.85;;;12.40;99.90;;;;;;5034347;28;20079;-69
2023/10/28 09:34:40;;;;;;;6.43;2.60;;;12.40;99.90;;;;;;5028918;28;20491;-69
2023/10/28 09:37:12;;;;;;;7.18;1.92;;;12.40;99.90;;;;;;5035452;28;20034;-69
2023/10/28 09:39:39;;;;;;;5.00;2.17;;;12.40;99.90;;;;;;5026955;28;20059;-69
2023/10/28 09:42:07;;;;;;;6.22;2.25;;;12.40;99.90;;;;;;5028713;28;20022;-69
2023/10/28 09:44:35;;;;;;;4.38;2.03;;;12.40;99.90;;;;;;5026601;28;20040;-69
2023/10/28 09:47:07;;;;;;;8.90;3.15;;;12.40;99.90;;;;;;5034560;28;20109;-69
2023/10/28 09:49:34;;;;;;;5.80;2.53;;;12.40;99.90;;;;;;5030233;28;20021;-70
2023/10/28 09:52:06;;;;;;;9.13;2.95;;;12.50;99.90;;;;;;5031386;28;20079;-70
2023/10/28 09:54:35;;;;;;;12.18;3.17;;;12.50;99.90;;;;;;5029806;28;20040;-70
2023/10/28 09:57:01;;;;;;;6.20;2.85;;;12.50;99.90;;;;;;5036625;28;20424;-70
2023/10/28 09:59:33;;;;;;;7.25;2.58;;;12.50;99.90;;;;;;5028862;28;20036;-70
2023/10/28 10:02:32;;;;;;;7.13;2.53;;;12.60;99.90;;;;;;5027029;28;20488;-70
2023/10/28 10:05:23;;;;;;;6.50;2.50;;;12.60;99.90;;;;;;5023874;28;20495;-70
2023/10/28 10:07:52;;;;;;;9.10;2.80;;;12.60;99.90;;;;;;5026663;28;20444;-70
2023/10/28 10:10:20;;;;;;;3.67;2.08;;;12.70;99.90;;;;;;5026968;28;20029;-70
2023/10/28 10:12:48;;;;;;;5.22;2.90;;;12.70;99.90;;;;;;5024770;28;20060;-75
2023/10/28 10:15:19;;;;;;;8.75;3.20;;;12.70;99.90;;;;;;5029040;28;20021;-70
2023/10/28 10:18:27;;;;;;;9.75;3.28;;;12.80;99.90;;;;;;5027559;28;20040;-69
2023/10/28 10:21:04;;;;;;;5.53;2.92;;;12.80;99.90;;;;;;5024950;28;20063;-69
2023/10/28 10:23:39;;;;;;;7.88;3.33;;;12.80;99.90;;;;;;5025350;28;20048;-69
2023/10/28 10:26:05;;;;;;;10.98;3.10;;;12.90;99.90;;;;;;5022614;28;20017;-69
2023/10/28 10:28:30;;;;;;;6.13;2.85;;;13.00;99.90;;;;;;5026411;28;20446;-70
2023/10/28 10:30:59;;;;;;;4.80;2.33;;;13.00;99.90;;;;;;5028337;28;20057;-69
2023/10/28 10:33:28;;;;;;;7.32;2.92;;;13.10;99.90;;;;;;5025192;28;20033;-70
2023/10/28 10:35:56;;;;;;;6.78;2.78;;;13.20;99.90;;;;;;5026277;28;20092;-70
2023/10/28 10:38:33;;;;;;;4.93;2.70;;;13.20;99.90;;;;;;5027318;28;20029;-70
2023/10/28 10:40:59;;;;;;;6.63;3.03;;;13.30;99.90;;;;;;5025798;28;20045;-70
2023/10/28 10:43:29;;;;;;;6.13;3.00;;;13.30;99.90;;;;;;5024828;28;20062;-70
2023/10/28 10:45:58;;;;;;;4.22;2.60;;;13.40;99.90;;;;;;5024411;28;20084;-71
2023/10/28 10:48:27;;;;;;;5.97;2.28;;;13.40;99.90;;;;;;5021473;28;20121;-71
2023/10/28 10:50:56;;;;;;;4.82;2.22;;;13.40;99.90;;;;;;5025529;28;20025;-69
2023/10/28 10:53:22;;;;;;;7.65;2.05;;;13.40;99.90;;;;;;5027192;28;20113;-69
2023/10/28 10:55:48;;;;;;;4.95;2.15;;;13.50;99.90;;;;;;5027713;28;20030;-69
2023/10/28 10:58:13;;;;;;;3.28;1.60;;;13.40;99.90;;;;;;5022992;28;20056;-70
2023/10/28 11:00:49;;;;;;;8.52;1.63;;;13.40;99.90;;;;;;5022276;28;20138;-69
2023/10/28 11:03:16;;;;;;;5.95;1.85;;;13.40;99.90;;;;;;5022666;28;20033;-70
2023/10/28 11:05:46;;;;;;;3.10;1.38;;;13.40;99.90;;;;;;5025692;28;20025;-70
2023/10/28 11:08:14;;;;;;;4.82;1.67;;;13.40;99.90;;;;;;5022925;28;20113;-70
2023/10/28 11:10:45;;;;;;;3.42;1.20;;;13.40;99.90;;;;;;5020889;28;20100;-70
2023/10/28 11:13:11;;;;;;;2.53;1.40;;;13.40;99.90;;;;;;5022402;28;20714;-68
2023/10/28 11:15:36;;;;;;;5.68;1.30;;;13.40;99.90;;;;;;5026328;28;20038;-69
2023/10/28 11:18:02;;;;;;;3.45;1.27;;;13.40;99.90;;;;;;5028152;28;20035;-69
2023/10/28 11:20:29;;;;;;;3.10;1.65;;;13.40;99.90;;;;;;5029100;28;20029;-69
2023/10/28 11:22:55;;;;;;;3.20;1.27;;;13.40;99.90;;;;;;5028615;28;20075;-69
2023/10/28 11:25:29;;;;;;;7.70;1.33;;;13.50;99.90;;;;;;5025060;28;20557;-69
2023/10/28 11:27:57;;;;;;;2.85;1.40;;;13.60;99.90;;;;;;5028536;28;20030;-69
2023/10/28 11:30:26;;;;;;;6.30;1.45;;;13.50;99.90;;;;;;5029762;28;20029;-69
2023/10/28 11:32:56;;;;;;;5.03;1.40;;;13.60;99.90;;;;;;5028650;28;20488;-69
2023/10/28 11:35:24;;;;;;;1.98;1.30;;;13.60;99.90;;;;;;5025770;28;20088;-69
2023/10/28 11:37:53;;;;;;;2.33;1.20;;;13.60;99.90;;;;;;5030059;28;20060;-69
2023/10/28 11:40:21;;;;;;;3.20;1.25;;;13.70;99.90;;;;;;5028882;28;20026;-68
2023/10/28 11:42:51;;;;;;;3.70;1.17;;;13.70;99.90;;;;;;5029293;28;20079;-69
2023/10/28 11:45:16;;;;;;;11.82;1.45;;;13.80;99.90;;;;;;5028180;28;20033;-69
2023/10/28 11:47:43;;;;;;;4.93;1.10;;;13.80;99.90;;;;;;5028370;28;20545;-69
2023/10/28 11:50:09;;;;;;;4.53;1.08;;;13.90;99.90;;;;;;5029092;28;20036;-69
2023/10/28 11:52:35;;;;;;;1.65;0.95;;;13.90;99.90;;;;;;5028391;28;20029;-71
2023/10/28 11:55:05;;;;;;;3.05;0.90;;;13.90;99.90;;;;;;5028939;28;20025;-69
2023/10/28 11:57:35;;;;;;;2.50;0.70;;;13.90;99.90;;;;;;5028633;28;20361;-69
2023/10/28 12:00:00;;;;;;;1.05;0.65;;;13.90;99.90;;;;;;5026727;28;20041;-69
2023/10/28 12:02:26;;;;;;;1.05;0.63;;;13.90;99.90;;;;;;5028878;28;20034;-69
2023/10/28 12:04:52;;;;;;;2.28;0.50;;;14.00;99.90;;;;;;5028270;28;20069;-69
2023/10/28 12:07:20;;;;;;;0.95;0.40;;;14.10;99.90;;;;;;5027683;28;20496;-69
2023/10/28 12:09:45;;;;;;;3.42;0.63;;;14.20;99.90;;;;;;5028805;28;20025;-69
2023/10/28 12:12:16;;;;;;;1.58;0.43;;;14.20;99.90;;;;;;5028036;28;20080;-69
2023/10/28 12:14:42;;;;;;;1.55;0.50;;;14.20;99.90;;;;;;5028779;28;20030;-69
2023/10/28 12:17:11;;;;;;;0.73;0.50;;;14.20;99.90;;;;;;5029670;28;20033;-69
2023/10/28 12:19:38;;;;;;;1.40;0.70;;;14.20;99.90;;;;;;5028676;28;20025;-69
2023/10/28 12:22:09;;;;;;;1.85;0.68;;;14.20;99.90;;;;;;5028641;28;20036;-69
2023/10/28 12:24:39;;;;;;;2.10;0.40;;;14.20;99.90;;;;;;5027838;28;20032;-69
2023/10/28 12:27:05;;;;;;;1.25;0.55;;;14.20;99.90;;;;;;5030866;28;20104;-69
2023/10/28 12:29:30;;;;;;;1.05;0.60;;;14.20;99.90;;;;;;5028464;28;20140;-68
2023/10/28 12:31:58;;;;;;;0.75;0.50;;;14.00;99.90;;;;;;5028147;28;20099;-69
2023/10/28 12:34:24;;;;;;;;;;;13.90;99.90;;;;;;5026217;28;20017;-69
2023/10/28 12:36:49;;;;;;;1.65;0.40;;;13.80;99.90;;;;;;5034860;28;20393;-69
2023/10/28 12:39:16;;;;;;;0.70;0.40;;;13.70;99.90;;;;;;5032067;28;20029;-69
2023/10/28 12:41:45;;;;;;;5.15;0.40;;;13.70;99.90;;;;;;5031976;28;20029;-69